sensor_id;sensor_type;location;lat;lon;timestamp;P1;durP1;ratioP1;P2;durP2;ratioP2
665;SDS011;315;48.738;9.126;2022-09-21T00:00:43;6.23;;;4.30;;
665;SDS011;315;48.738;9.126;2022-09-21T00:03:09;7.07;;;4.90;;
665;SDS011;315;48.738;9.126;2022-09-21T00:05:34;4.93;;;4.13;;
665;SDS011;315;48.738;9.126;2022-09-21T00:08:01;7.13;;;5.00;;
665;SDS011;315;48.738;9.126;2022-09-21T00:10:28;8.00;;;5.00;;
665;SDS011;315;48.738;9.126;2022-09-21T00:12:54;8.63;;;5.10;;
665;SDS011;315;48.738;9.126;2022-09-21T00:15:21;6.50;;;5.50;;
665;SDS011;315;48.738;9.126;2022-09-21T00:17:50;4.90;;;4.40;;
665;SDS011;315;48.738;9.126;2022-09-21T00:20:17;5.13;;;3.83;;
665;SDS011;315;48.738;9.126;2022-09-21T00:22:44;6.80;;;3.90;;
665;SDS011;315;48.738;9.126;2022-09-21T00:25:10;10.10;;;5.43;;
665;SDS011;315;48.738;9.126;2022-09-21T00:27:36;5.30;;;4.80;;
665;SDS011;315;48.738;9.126;2022-09-21T00:30:01;8.27;;;5.20;;
665;SDS011;315;48.738;9.126;2022-09-21T00:32:28;6.30;;;4.50;;
665;SDS011;315;48.738;9.126;2022-09-21T00:34:58;7.97;;;5.13;;
665;SDS011;315;48.738;9.126;2022-09-21T00:37:25;5.90;;;3.80;;
665;SDS011;315;48.738;9.126;2022-09-21T00:39:51;7.57;;;4.63;;
665;SDS011;315;48.738;9.126;2022-09-21T00:42:22;5.90;;;3.77;;
665;SDS011;315;48.738;9.126;2022-09-21T00:44:48;4.70;;;3.67;;
665;SDS011;315;48.738;9.126;2022-09-21T00:47:15;9.87;;;4.40;;
665;SDS011;315;48.738;9.126;2022-09-21T00:49:44;8.10;;;4.60;;
665;SDS011;315;48.738;9.126;2022-09-21T00:52:13;4.83;;;3.47;;
665;SDS011;315;48.738;9.126;2022-09-21T00:54:44;7.87;;;3.80;;
665;SDS011;315;48.738;9.126;2022-09-21T00:57:14;4.43;;;3.90;;
665;SDS011;315;48.738;9.126;2022-09-21T00:59:41;5.23;;;4.43;;
665;SDS011;315;48.738;9.126;2022-09-21T01:02:09;5.80;;;4.40;;
665;SDS011;315;48.738;9.126;2022-09-21T01:04:35;5.47;;;4.77;;
665;SDS011;315;48.738;9.126;2022-09-21T01:07:02;5.50;;;3.73;;
665;SDS011;315;48.738;9.126;2022-09-21T01:09:32;6.00;;;4.03;;
665;SDS011;315;48.738;9.126;2022-09-21T01:31:27;9.00;;;4.47;;
665;SDS011;315;48.738;9.126;2022-09-21T01:33:58;4.77;;;4.13;;
665;SDS011;315;48.738;9.126;2022-09-21T01:36:30;11.40;;;3.93;;
665;SDS011;315;48.738;9.126;2022-09-21T01:39:04;4.77;;;4.37;;
665;SDS011;315;48.738;9.126;2022-09-21T01:41:32;4.10;;;3.27;;
665;SDS011;315;48.738;9.126;2022-09-21T01:44:05;4.50;;;4.00;;
665;SDS011;315;48.738;9.126;2022-09-21T01:46:34;5.17;;;4.77;;
665;SDS011;315;48.738;9.126;2022-09-21T01:49:03;7.13;;;4.30;;
665;SDS011;315;48.738;9.126;2022-09-21T01:51:34;7.13;;;4.50;;
665;SDS011;315;48.738;9.126;2022-09-21T01:54:03;7.07;;;4.23;;
665;SDS011;315;48.738;9.126;2022-09-21T01:56:39;6.97;;;4.23;;
665;SDS011;315;48.738;9.126;2022-09-21T01:59:13;6.43;;;4.90;;
665;SDS011;315;48.738;9.126;2022-09-21T02:01:48;7.13;;;4.27;;
665;SDS011;315;48.738;9.126;2022-09-21T02:04:19;6.50;;;4.97;;
665;SDS011;315;48.738;9.126;2022-09-21T02:06:45;4.47;;;4.07;;
665;SDS011;315;48.738;9.126;2022-09-21T02:09:12;7.83;;;5.37;;
665;SDS011;315;48.738;9.126;2022-09-21T02:11:38;5.50;;;4.30;;
665;SDS011;315;48.738;9.126;2022-09-21T02:14:07;7.03;;;5.07;;
665;SDS011;315;48.738;9.126;2022-09-21T02:16:39;6.70;;;5.00;;
665;SDS011;315;48.738;9.126;2022-09-21T02:22:14;9.17;;;5.10;;
665;SDS011;315;48.738;9.126;2022-09-21T02:24:54;6.13;;;4.43;;
665;SDS011;315;48.738;9.126;2022-09-21T02:28:12;5.53;;;4.50;;
665;SDS011;315;48.738;9.126;2022-09-21T02:30:20;5.63;;;4.50;;
665;SDS011;315;48.738;9.126;2022-09-21T02:33:05;6.80;;;4.63;;
665;SDS011;315;48.738;9.126;2022-09-21T02:35:50;6.40;;;4.23;;
665;SDS011;315;48.738;9.126;2022-09-21T02:41:18;4.87;;;4.37;;
665;SDS011;315;48.738;9.126;2022-09-21T02:43:49;6.10;;;4.50;;
665;SDS011;315;48.738;9.126;2022-09-21T02:46:26;6.97;;;4.80;;
665;SDS011;315;48.738;9.126;2022-09-21T02:48:54;5.43;;;4.27;;
665;SDS011;315;48.738;9.126;2022-09-21T02:51:26;5.60;;;4.33;;
665;SDS011;315;48.738;9.126;2022-09-21T02:53:58;4.87;;;4.10;;
665;SDS011;315;48.738;9.126;2022-09-21T02:56:28;7.00;;;4.20;;
665;SDS011;315;48.738;9.126;2022-09-21T02:58:55;6.13;;;4.10;;
665;SDS011;315;48.738;9.126;2022-09-21T03:01:24;5.80;;;4.20;;
665;SDS011;315;48.738;9.126;2022-09-21T03:03:52;6.60;;;5.60;;
665;SDS011;315;48.738;9.126;2022-09-21T03:06:17;8.73;;;4.50;;
665;SDS011;315;48.738;9.126;2022-09-21T03:08:43;4.93;;;4.40;;
665;SDS011;315;48.738;9.126;2022-09-21T03:11:08;6.70;;;4.37;;
665;SDS011;315;48.738;9.126;2022-09-21T03:13:35;7.00;;;4.60;;
665;SDS011;315;48.738;9.126;2022-09-21T03:16:02;7.83;;;5.07;;
665;SDS011;315;48.738;9.126;2022-09-21T03:18:30;5.03;;;4.47;;
665;SDS011;315;48.738;9.126;2022-09-21T03:20:56;6.40;;;3.77;;
665;SDS011;315;48.738;9.126;2022-09-21T03:23:22;7.70;;;5.27;;
665;SDS011;315;48.738;9.126;2022-09-21T03:25:47;8.97;;;4.50;;
665;SDS011;315;48.738;9.126;2022-09-21T03:28:14;9.50;;;6.43;;
665;SDS011;315;48.738;9.126;2022-09-21T03:30:40;7.30;;;6.03;;
665;SDS011;315;48.738;9.126;2022-09-21T03:33:05;6.73;;;5.90;;
665;SDS011;315;48.738;9.126;2022-09-21T03:35:32;10.53;;;7.20;;
665;SDS011;315;48.738;9.126;2022-09-21T03:37:58;8.90;;;7.10;;
665;SDS011;315;48.738;9.126;2022-09-21T03:40:24;10.33;;;8.67;;
665;SDS011;315;48.738;9.126;2022-09-21T03:42:51;9.47;;;6.27;;
665;SDS011;315;48.738;9.126;2022-09-21T03:45:17;11.77;;;7.77;;
665;SDS011;315;48.738;9.126;2022-09-21T03:47:43;8.37;;;7.43;;
665;SDS011;315;48.738;9.126;2022-09-21T03:50:09;9.07;;;8.20;;
665;SDS011;315;48.738;9.126;2022-09-21T03:52:35;16.10;;;9.60;;
665;SDS011;315;48.738;9.126;2022-09-21T03:55:03;13.10;;;9.57;;
665;SDS011;315;48.738;9.126;2022-09-21T03:57:30;9.50;;;7.60;;
665;SDS011;315;48.738;9.126;2022-09-21T03:59:56;10.20;;;8.23;;
665;SDS011;315;48.738;9.126;2022-09-21T04:02:22;12.53;;;9.03;;
665;SDS011;315;48.738;9.126;2022-09-21T04:04:47;12.87;;;9.10;;
665;SDS011;315;48.738;9.126;2022-09-21T04:07:13;11.27;;;9.93;;
665;SDS011;315;48.738;9.126;2022-09-21T04:09:39;8.70;;;7.80;;
665;SDS011;315;48.738;9.126;2022-09-21T04:12:05;7.63;;;6.83;;
665;SDS011;315;48.738;9.126;2022-09-21T04:14:31;7.50;;;6.80;;
665;SDS011;315;48.738;9.126;2022-09-21T04:16:57;10.33;;;8.00;;
665;SDS011;315;48.738;9.126;2022-09-21T04:19:23;12.63;;;8.27;;
665;SDS011;315;48.738;9.126;2022-09-21T04:21:48;11.43;;;8.60;;
665;SDS011;315;48.738;9.126;2022-09-21T04:24:15;9.83;;;8.23;;
665;SDS011;315;48.738;9.126;2022-09-21T04:26:43;9.60;;;8.60;;
665;SDS011;315;48.738;9.126;2022-09-21T04:29:10;10.83;;;8.50;;
665;SDS011;315;48.738;9.126;2022-09-21T04:31:39;11.00;;;8.70;;
665;SDS011;315;48.738;9.126;2022-09-21T04:34:06;14.53;;;9.43;;
665;SDS011;315;48.738;9.126;2022-09-21T04:36:33;10.00;;;8.40;;
665;SDS011;315;48.738;9.126;2022-09-21T04:39:01;8.60;;;6.80;;
665;SDS011;315;48.738;9.126;2022-09-21T04:41:28;10.40;;;7.80;;
665;SDS011;315;48.738;9.126;2022-09-21T04:43:54;11.80;;;7.60;;
665;SDS011;315;48.738;9.126;2022-09-21T04:46:19;13.97;;;8.30;;
665;SDS011;315;48.738;9.126;2022-09-21T04:48:45;12.47;;;8.63;;
665;SDS011;315;48.738;9.126;2022-09-21T04:51:11;10.10;;;9.10;;
665;SDS011;315;48.738;9.126;2022-09-21T04:53:39;10.10;;;8.47;;
665;SDS011;315;48.738;9.126;2022-09-21T04:56:06;9.70;;;8.37;;
665;SDS011;315;48.738;9.126;2022-09-21T04:58:33;12.20;;;9.20;;
665;SDS011;315;48.738;9.126;2022-09-21T05:00:58;11.83;;;8.80;;
665;SDS011;315;48.738;9.126;2022-09-21T05:03:24;14.83;;;9.30;;
665;SDS011;315;48.738;9.126;2022-09-21T05:05:51;11.37;;;8.10;;
665;SDS011;315;48.738;9.126;2022-09-21T05:08:18;11.83;;;9.33;;
665;SDS011;315;48.738;9.126;2022-09-21T05:11:07;13.53;;;9.50;;
665;SDS011;315;48.738;9.126;2022-09-21T05:13:37;14.10;;;9.40;;
665;SDS011;315;48.738;9.126;2022-09-21T05:16:03;12.07;;;8.83;;
665;SDS011;315;48.738;9.126;2022-09-21T05:18:29;11.03;;;9.83;;
665;SDS011;315;48.738;9.126;2022-09-21T05:20:55;14.47;;;9.67;;
665;SDS011;315;48.738;9.126;2022-09-21T05:23:24;11.80;;;9.80;;
665;SDS011;315;48.738;9.126;2022-09-21T05:25:51;12.07;;;10.27;;
665;SDS011;315;48.738;9.126;2022-09-21T05:28:17;13.10;;;10.83;;
665;SDS011;315;48.738;9.126;2022-09-21T05:31:09;16.70;;;10.80;;
665;SDS011;315;48.738;9.126;2022-09-21T05:33:41;11.53;;;10.30;;
665;SDS011;315;48.738;9.126;2022-09-21T05:38:56;10.07;;;8.70;;
665;SDS011;315;48.738;9.126;2022-09-21T05:41:22;12.33;;;11.23;;
665;SDS011;315;48.738;9.126;2022-09-21T05:43:48;13.70;;;10.03;;
665;SDS011;315;48.738;9.126;2022-09-21T05:46:18;10.50;;;9.27;;
665;SDS011;315;48.738;9.126;2022-09-21T05:48:51;10.97;;;9.77;;
665;SDS011;315;48.738;9.126;2022-09-21T05:51:37;15.70;;;10.93;;
665;SDS011;315;48.738;9.126;2022-09-21T05:56:48;17.97;;;11.60;;
665;SDS011;315;48.738;9.126;2022-09-21T06:04:40;11.77;;;10.23;;
665;SDS011;315;48.738;9.126;2022-09-21T06:07:05;13.30;;;10.67;;
665;SDS011;315;48.738;9.126;2022-09-21T06:09:31;11.80;;;10.50;;
665;SDS011;315;48.738;9.126;2022-09-21T06:11:56;11.67;;;10.47;;
665;SDS011;315;48.738;9.126;2022-09-21T06:14:23;12.90;;;11.60;;
665;SDS011;315;48.738;9.126;2022-09-21T06:16:49;14.97;;;11.80;;
665;SDS011;315;48.738;9.126;2022-09-21T06:19:15;14.33;;;10.60;;
665;SDS011;315;48.738;9.126;2022-09-21T06:21:41;15.63;;;11.60;;
665;SDS011;315;48.738;9.126;2022-09-21T06:24:06;12.10;;;10.77;;
665;SDS011;315;48.738;9.126;2022-09-21T06:26:32;15.23;;;10.73;;
665;SDS011;315;48.738;9.126;2022-09-21T06:28:58;10.27;;;9.30;;
665;SDS011;315;48.738;9.126;2022-09-21T06:31:25;11.87;;;10.67;;
665;SDS011;315;48.738;9.126;2022-09-21T06:33:51;11.67;;;10.07;;
665;SDS011;315;48.738;9.126;2022-09-21T06:36:17;12.03;;;10.83;;
665;SDS011;315;48.738;9.126;2022-09-21T06:38:42;11.10;;;10.10;;
665;SDS011;315;48.738;9.126;2022-09-21T06:41:08;11.60;;;10.33;;
665;SDS011;315;48.738;9.126;2022-09-21T06:43:33;13.27;;;9.60;;
665;SDS011;315;48.738;9.126;2022-09-21T06:46:02;11.57;;;10.57;;
665;SDS011;315;48.738;9.126;2022-09-21T06:48:28;12.63;;;9.93;;
665;SDS011;315;48.738;9.126;2022-09-21T06:50:55;9.83;;;9.03;;
665;SDS011;315;48.738;9.126;2022-09-21T06:53:25;12.40;;;10.40;;
665;SDS011;315;48.738;9.126;2022-09-21T06:55:52;12.67;;;9.60;;
665;SDS011;315;48.738;9.126;2022-09-21T06:58:18;13.60;;;10.77;;
665;SDS011;315;48.738;9.126;2022-09-21T07:00:44;12.03;;;10.70;;
665;SDS011;315;48.738;9.126;2022-09-21T07:03:10;11.80;;;9.63;;
665;SDS011;315;48.738;9.126;2022-09-21T07:05:39;12.13;;;10.93;;
665;SDS011;315;48.738;9.126;2022-09-21T07:08:08;10.80;;;9.70;;
665;SDS011;315;48.738;9.126;2022-09-21T07:10:33;16.10;;;9.20;;
665;SDS011;315;48.738;9.126;2022-09-21T07:13:02;11.27;;;10.20;;
665;SDS011;315;48.738;9.126;2022-09-21T07:15:29;10.33;;;9.10;;
665;SDS011;315;48.738;9.126;2022-09-21T07:17:56;9.80;;;8.80;;
665;SDS011;315;48.738;9.126;2022-09-21T07:20:22;10.83;;;8.27;;
665;SDS011;315;48.738;9.126;2022-09-21T07:22:48;12.03;;;10.77;;
665;SDS011;315;48.738;9.126;2022-09-21T07:25:13;9.67;;;8.37;;
665;SDS011;315;48.738;9.126;2022-09-21T07:27:39;11.30;;;9.83;;
665;SDS011;315;48.738;9.126;2022-09-21T07:30:05;10.47;;;8.83;;
665;SDS011;315;48.738;9.126;2022-09-21T07:32:32;9.67;;;8.03;;
665;SDS011;315;48.738;9.126;2022-09-21T07:34:57;10.53;;;7.20;;
665;SDS011;315;48.738;9.126;2022-09-21T07:37:23;9.43;;;8.10;;
665;SDS011;315;48.738;9.126;2022-09-21T07:39:49;7.23;;;6.53;;
665;SDS011;315;48.738;9.126;2022-09-21T07:42:16;8.93;;;7.50;;
665;SDS011;315;48.738;9.126;2022-09-21T07:44:43;9.13;;;6.97;;
665;SDS011;315;48.738;9.126;2022-09-21T07:47:10;7.53;;;6.80;;
665;SDS011;315;48.738;9.126;2022-09-21T07:49:37;8.63;;;6.70;;
665;SDS011;315;48.738;9.126;2022-09-21T07:52:03;9.20;;;7.23;;
665;SDS011;315;48.738;9.126;2022-09-21T07:54:29;8.97;;;6.63;;
665;SDS011;315;48.738;9.126;2022-09-21T07:56:55;15.43;;;6.30;;
665;SDS011;315;48.738;9.126;2022-09-21T07:59:40;9.17;;;7.40;;
665;SDS011;315;48.738;9.126;2022-09-21T08:02:05;10.30;;;7.60;;
665;SDS011;315;48.738;9.126;2022-09-21T08:04:31;11.70;;;5.73;;
665;SDS011;315;48.738;9.126;2022-09-21T08:06:56;6.33;;;5.73;;
665;SDS011;315;48.738;9.126;2022-09-21T08:09:22;6.20;;;4.73;;
665;SDS011;315;48.738;9.126;2022-09-21T08:11:47;4.43;;;4.03;;
665;SDS011;315;48.738;9.126;2022-09-21T08:14:13;4.90;;;4.30;;
665;SDS011;315;48.738;9.126;2022-09-21T08:16:43;4.60;;;4.20;;
665;SDS011;315;48.738;9.126;2022-09-21T08:19:09;5.03;;;3.50;;
665;SDS011;315;48.738;9.126;2022-09-21T08:21:35;5.47;;;3.60;;
665;SDS011;315;48.738;9.126;2022-09-21T08:24:00;5.00;;;3.03;;
665;SDS011;315;48.738;9.126;2022-09-21T08:26:26;4.90;;;3.70;;
665;SDS011;315;48.738;9.126;2022-09-21T08:28:52;3.27;;;2.97;;
665;SDS011;315;48.738;9.126;2022-09-21T08:31:21;4.93;;;3.13;;
665;SDS011;315;48.738;9.126;2022-09-21T08:33:48;4.20;;;2.80;;
665;SDS011;315;48.738;9.126;2022-09-21T08:36:14;5.13;;;3.07;;
665;SDS011;315;48.738;9.126;2022-09-21T08:38:40;4.23;;;3.80;;
665;SDS011;315;48.738;9.126;2022-09-21T08:41:12;6.17;;;3.90;;
665;SDS011;315;48.738;9.126;2022-09-21T08:43:39;7.93;;;3.80;;
665;SDS011;315;48.738;9.126;2022-09-21T08:46:15;6.43;;;4.20;;
665;SDS011;315;48.738;9.126;2022-09-21T08:48:50;5.20;;;4.60;;
665;SDS011;315;48.738;9.126;2022-09-21T08:51:22;8.60;;;4.67;;
665;SDS011;315;48.738;9.126;2022-09-21T08:53:51;9.47;;;4.33;;
665;SDS011;315;48.738;9.126;2022-09-21T08:56:19;5.63;;;4.97;;
665;SDS011;315;48.738;9.126;2022-09-21T08:58:47;5.10;;;4.70;;
665;SDS011;315;48.738;9.126;2022-09-21T09:01:56;5.80;;;5.27;;
665;SDS011;315;48.738;9.126;2022-09-21T09:06:56;3.70;;;3.40;;
665;SDS011;315;48.738;9.126;2022-09-21T09:12:28;1.83;;;1.60;;
665;SDS011;315;48.738;9.126;2022-09-21T09:15:13;3.10;;;1.33;;
665;SDS011;315;48.738;9.126;2022-09-21T09:20:25;1.60;;;1.50;;
665;SDS011;315;48.738;9.126;2022-09-21T09:25:48;1.23;;;1.13;;
665;SDS011;315;48.738;9.126;2022-09-21T09:28:29;1.80;;;1.70;;
665;SDS011;315;48.738;9.126;2022-09-21T09:31:07;2.87;;;1.93;;
665;SDS011;315;48.738;9.126;2022-09-21T09:33:52;2.63;;;1.20;;
665;SDS011;315;48.738;9.126;2022-09-21T09:36:28;1.90;;;1.50;;
665;SDS011;315;48.738;9.126;2022-09-21T09:39:00;1.60;;;1.47;;
665;SDS011;315;48.738;9.126;2022-09-21T09:44:36;2.10;;;1.30;;
665;SDS011;315;48.738;9.126;2022-09-21T09:50:10;1.73;;;1.40;;
665;SDS011;315;48.738;9.126;2022-09-21T09:52:44;2.60;;;1.53;;
665;SDS011;315;48.738;9.126;2022-09-21T09:55:16;2.40;;;2.20;;
665;SDS011;315;48.738;9.126;2022-09-21T09:57:46;2.00;;;1.73;;
665;SDS011;315;48.738;9.126;2022-09-21T10:00:14;1.63;;;1.47;;
665;SDS011;315;48.738;9.126;2022-09-21T10:03:00;3.87;;;1.63;;
665;SDS011;315;48.738;9.126;2022-09-21T10:05:33;7.37;;;2.30;;
665;SDS011;315;48.738;9.126;2022-09-21T10:08:00;2.33;;;1.93;;
665;SDS011;315;48.738;9.126;2022-09-21T10:13:18;1.90;;;1.67;;
665;SDS011;315;48.738;9.126;2022-09-21T10:15:59;2.50;;;2.00;;
665;SDS011;315;48.738;9.126;2022-09-21T10:21:22;2.90;;;2.37;;
665;SDS011;315;48.738;9.126;2022-09-21T10:23:58;2.23;;;2.03;;
665;SDS011;315;48.738;9.126;2022-09-21T10:26:30;5.13;;;2.73;;
665;SDS011;315;48.738;9.126;2022-09-21T10:29:15;3.93;;;2.60;;
665;SDS011;315;48.738;9.126;2022-09-21T10:32:01;2.43;;;2.23;;
665;SDS011;315;48.738;9.126;2022-09-21T10:34:32;3.50;;;2.30;;
665;SDS011;315;48.738;9.126;2022-09-21T10:37:00;4.03;;;2.70;;
665;SDS011;315;48.738;9.126;2022-09-21T10:39:30;3.37;;;3.03;;
665;SDS011;315;48.738;9.126;2022-09-21T10:42:03;2.37;;;2.17;;
665;SDS011;315;48.738;9.126;2022-09-21T10:44:37;3.00;;;2.20;;
665;SDS011;315;48.738;9.126;2022-09-21T10:47:15;4.40;;;2.80;;
665;SDS011;315;48.738;9.126;2022-09-21T10:49:45;2.30;;;2.10;;
665;SDS011;315;48.738;9.126;2022-09-21T10:52:14;3.07;;;2.77;;
665;SDS011;315;48.738;9.126;2022-09-21T10:54:43;4.00;;;2.67;;
665;SDS011;315;48.738;9.126;2022-09-21T10:57:14;3.33;;;2.30;;
665;SDS011;315;48.738;9.126;2022-09-21T10:59:42;2.40;;;2.20;;
665;SDS011;315;48.738;9.126;2022-09-21T11:04:57;2.50;;;2.30;;
665;SDS011;315;48.738;9.126;2022-09-21T11:07:36;1.77;;;1.67;;
665;SDS011;315;48.738;9.126;2022-09-21T11:10:18;1.60;;;1.50;;
665;SDS011;315;48.738;9.126;2022-09-21T11:13:03;1.47;;;1.37;;
665;SDS011;315;48.738;9.126;2022-09-21T11:21:08;2.33;;;1.57;;
665;SDS011;315;48.738;9.126;2022-09-21T11:26:40;2.07;;;1.40;;
665;SDS011;315;48.738;9.126;2022-09-21T11:29:16;4.47;;;1.40;;
665;SDS011;315;48.738;9.126;2022-09-21T11:37:16;1.53;;;1.30;;
665;SDS011;315;48.738;9.126;2022-09-21T11:42:28;1.27;;;1.17;;
665;SDS011;315;48.738;9.126;2022-09-21T11:45:32;1.27;;;1.17;;
665;SDS011;315;48.738;9.126;2022-09-21T11:48:09;2.43;;;2.07;;
665;SDS011;315;48.738;9.126;2022-09-21T11:58:56;2.47;;;1.90;;
665;SDS011;315;48.738;9.126;2022-09-21T12:10:00;1.93;;;1.53;;
665;SDS011;315;48.738;9.126;2022-09-21T12:12:50;1.87;;;1.37;;
665;SDS011;315;48.738;9.126;2022-09-21T12:18:03;2.40;;;1.80;;
665;SDS011;315;48.738;9.126;2022-09-21T12:20:47;2.00;;;1.70;;
665;SDS011;315;48.738;9.126;2022-09-21T12:23:26;1.77;;;1.67;;
665;SDS011;315;48.738;9.126;2022-09-21T12:25:59;2.23;;;1.27;;
665;SDS011;315;48.738;9.126;2022-09-21T12:28:29;1.40;;;1.30;;
665;SDS011;315;48.738;9.126;2022-09-21T12:31:02;3.03;;;1.60;;
665;SDS011;315;48.738;9.126;2022-09-21T12:33:37;3.57;;;1.20;;
665;SDS011;315;48.738;9.126;2022-09-21T12:36:07;1.43;;;1.33;;
665;SDS011;315;48.738;9.126;2022-09-21T12:38:40;9.67;;;1.63;;
665;SDS011;315;48.738;9.126;2022-09-21T12:41:29;2.10;;;1.53;;
665;SDS011;315;48.738;9.126;2022-09-21T12:46:59;1.10;;;1.00;;
665;SDS011;315;48.738;9.126;2022-09-21T12:49:37;2.80;;;1.23;;
665;SDS011;315;48.738;9.126;2022-09-21T12:52:07;1.10;;;1.00;;
665;SDS011;315;48.738;9.126;2022-09-21T13:02:32;2.77;;;1.20;;
665;SDS011;315;48.738;9.126;2022-09-21T13:08:13;3.10;;;1.20;;
665;SDS011;315;48.738;9.126;2022-09-21T13:10:42;2.33;;;1.27;;
665;SDS011;315;48.738;9.126;2022-09-21T13:13:29;1.83;;;1.47;;
665;SDS011;315;48.738;9.126;2022-09-21T13:15:57;1.93;;;1.60;;
665;SDS011;315;48.738;9.126;2022-09-21T13:18:25;2.50;;;1.50;;
665;SDS011;315;48.738;9.126;2022-09-21T13:20:58;1.37;;;1.27;;
665;SDS011;315;48.738;9.126;2022-09-21T13:23:32;2.40;;;1.40;;
665;SDS011;315;48.738;9.126;2022-09-21T13:26:06;1.83;;;1.23;;
665;SDS011;315;48.738;9.126;2022-09-21T13:47:43;1.10;;;1.00;;
665;SDS011;315;48.738;9.126;2022-09-21T13:50:15;1.70;;;1.60;;
665;SDS011;315;48.738;9.126;2022-09-21T13:52:53;2.00;;;1.50;;
665;SDS011;315;48.738;9.126;2022-09-21T13:58:04;1.47;;;1.37;;
665;SDS011;315;48.738;9.126;2022-09-21T14:00:40;1.60;;;1.10;;
665;SDS011;315;48.738;9.126;2022-09-21T14:05:49;2.33;;;1.80;;
665;SDS011;315;48.738;9.126;2022-09-21T14:08:20;1.57;;;1.20;;
665;SDS011;315;48.738;9.126;2022-09-21T14:10:53;1.63;;;1.30;;
665;SDS011;315;48.738;9.126;2022-09-21T14:15:51;1.83;;;1.10;;
665;SDS011;315;48.738;9.126;2022-09-21T14:18:18;1.80;;;1.30;;
665;SDS011;315;48.738;9.126;2022-09-21T14:23:31;1.47;;;1.30;;
665;SDS011;315;48.738;9.126;2022-09-21T14:26:00;1.77;;;1.60;;
665;SDS011;315;48.738;9.126;2022-09-21T14:28:44;1.63;;;1.53;;
665;SDS011;315;48.738;9.126;2022-09-21T14:31:19;1.90;;;1.60;;
665;SDS011;315;48.738;9.126;2022-09-21T14:33:53;1.60;;;1.47;;
665;SDS011;315;48.738;9.126;2022-09-21T14:36:23;1.53;;;1.23;;
665;SDS011;315;48.738;9.126;2022-09-21T14:39:03;1.20;;;1.10;;
665;SDS011;315;48.738;9.126;2022-09-21T14:41:40;1.53;;;1.30;;
665;SDS011;315;48.738;9.126;2022-09-21T14:44:15;2.33;;;1.30;;
665;SDS011;315;48.738;9.126;2022-09-21T14:52:07;1.10;;;1.00;;
665;SDS011;315;48.738;9.126;2022-09-21T14:58:03;1.30;;;1.20;;
665;SDS011;315;48.738;9.126;2022-09-21T15:00:44;1.77;;;1.30;;
665;SDS011;315;48.738;9.126;2022-09-21T15:09:25;1.67;;;1.40;;
665;SDS011;315;48.738;9.126;2022-09-21T15:12:16;2.47;;;1.57;;
665;SDS011;315;48.738;9.126;2022-09-21T15:14:46;1.60;;;1.40;;
665;SDS011;315;48.738;9.126;2022-09-21T15:17:49;1.30;;;1.20;;
665;SDS011;315;48.738;9.126;2022-09-21T15:20:20;1.43;;;1.33;;
665;SDS011;315;48.738;9.126;2022-09-21T15:22:52;1.93;;;1.30;;
665;SDS011;315;48.738;9.126;2022-09-21T15:25:19;2.00;;;1.60;;
665;SDS011;315;48.738;9.126;2022-09-21T15:27:45;1.40;;;1.30;;
665;SDS011;315;48.738;9.126;2022-09-21T15:30:24;2.03;;;1.60;;
665;SDS011;315;48.738;9.126;2022-09-21T15:32:53;2.07;;;1.40;;
665;SDS011;315;48.738;9.126;2022-09-21T15:35:21;1.30;;;1.20;;
665;SDS011;315;48.738;9.126;2022-09-21T15:37:57;1.50;;;1.40;;
665;SDS011;315;48.738;9.126;2022-09-21T15:40:31;2.17;;;1.67;;
665;SDS011;315;48.738;9.126;2022-09-21T15:45:55;2.63;;;2.43;;
665;SDS011;315;48.738;9.126;2022-09-21T15:48:23;1.47;;;1.37;;
665;SDS011;315;48.738;9.126;2022-09-21T15:50:54;3.10;;;2.40;;
665;SDS011;315;48.738;9.126;2022-09-21T15:53:30;2.13;;;2.03;;
665;SDS011;315;48.738;9.126;2022-09-21T15:56:00;1.80;;;1.67;;
665;SDS011;315;48.738;9.126;2022-09-21T15:58:29;1.90;;;1.80;;
665;SDS011;315;48.738;9.126;2022-09-21T16:00:59;2.50;;;1.93;;
665;SDS011;315;48.738;9.126;2022-09-21T16:03:26;2.13;;;1.40;;
665;SDS011;315;48.738;9.126;2022-09-21T16:05:53;1.47;;;1.37;;
665;SDS011;315;48.738;9.126;2022-09-21T16:13:47;1.53;;;1.43;;
665;SDS011;315;48.738;9.126;2022-09-21T16:22:16;2.10;;;1.70;;
665;SDS011;315;48.738;9.126;2022-09-21T16:24:55;1.40;;;1.20;;
665;SDS011;315;48.738;9.126;2022-09-21T16:27:24;1.57;;;1.43;;
665;SDS011;315;48.738;9.126;2022-09-21T16:29:51;1.37;;;1.27;;
665;SDS011;315;48.738;9.126;2022-09-21T16:34:44;3.00;;;1.50;;
665;SDS011;315;48.738;9.126;2022-09-21T16:39:48;1.50;;;1.40;;
665;SDS011;315;48.738;9.126;2022-09-21T16:42:14;2.70;;;1.83;;
665;SDS011;315;48.738;9.126;2022-09-21T16:44:40;1.40;;;1.30;;
665;SDS011;315;48.738;9.126;2022-09-21T16:47:19;2.60;;;1.80;;
665;SDS011;315;48.738;9.126;2022-09-21T16:49:52;3.63;;;2.00;;
665;SDS011;315;48.738;9.126;2022-09-21T16:52:24;1.50;;;1.30;;
665;SDS011;315;48.738;9.126;2022-09-21T16:54:52;2.20;;;1.57;;
665;SDS011;315;48.738;9.126;2022-09-21T16:57:18;4.53;;;1.50;;
665;SDS011;315;48.738;9.126;2022-09-21T16:59:44;2.00;;;1.90;;
665;SDS011;315;48.738;9.126;2022-09-21T17:02:10;3.57;;;3.27;;
665;SDS011;315;48.738;9.126;2022-09-21T17:04:37;3.20;;;2.73;;
665;SDS011;315;48.738;9.126;2022-09-21T17:07:03;4.10;;;2.13;;
665;SDS011;315;48.738;9.126;2022-09-21T17:09:30;2.27;;;2.17;;
665;SDS011;315;48.738;9.126;2022-09-21T17:11:58;1.87;;;1.77;;
665;SDS011;315;48.738;9.126;2022-09-21T17:14:29;2.50;;;2.30;;
665;SDS011;315;48.738;9.126;2022-09-21T17:19:41;3.00;;;2.40;;
665;SDS011;315;48.738;9.126;2022-09-21T17:22:08;3.10;;;2.90;;
665;SDS011;315;48.738;9.126;2022-09-21T17:24:34;6.83;;;2.73;;
665;SDS011;315;48.738;9.126;2022-09-21T17:27:00;3.17;;;2.93;;
665;SDS011;315;48.738;9.126;2022-09-21T17:29:26;3.70;;;3.47;;
665;SDS011;315;48.738;9.126;2022-09-21T17:31:54;5.20;;;4.70;;
665;SDS011;315;48.738;9.126;2022-09-21T17:34:22;2.07;;;1.87;;
665;SDS011;315;48.738;9.126;2022-09-21T17:36:49;5.93;;;2.40;;
665;SDS011;315;48.738;9.126;2022-09-21T17:39:15;2.77;;;2.57;;
665;SDS011;315;48.738;9.126;2022-09-21T17:41:44;2.40;;;2.20;;
665;SDS011;315;48.738;9.126;2022-09-21T17:49:24;2.27;;;2.07;;
665;SDS011;315;48.738;9.126;2022-09-21T17:51:50;3.40;;;2.60;;
665;SDS011;315;48.738;9.126;2022-09-21T17:54:34;2.20;;;2.00;;
665;SDS011;315;48.738;9.126;2022-09-21T18:00:10;8.07;;;2.83;;
665;SDS011;315;48.738;9.126;2022-09-21T18:02:45;2.93;;;2.10;;
665;SDS011;315;48.738;9.126;2022-09-21T18:05:20;2.70;;;2.40;;
665;SDS011;315;48.738;9.126;2022-09-21T18:07:54;4.40;;;2.17;;
665;SDS011;315;48.738;9.126;2022-09-21T18:10:21;6.00;;;2.87;;
665;SDS011;315;48.738;9.126;2022-09-21T18:15:39;4.43;;;2.50;;
665;SDS011;315;48.738;9.126;2022-09-21T18:18:11;4.40;;;2.57;;
665;SDS011;315;48.738;9.126;2022-09-21T18:23:22;2.80;;;2.03;;
665;SDS011;315;48.738;9.126;2022-09-21T18:25:56;3.80;;;2.60;;
665;SDS011;315;48.738;9.126;2022-09-21T18:33:52;3.80;;;3.10;;
665;SDS011;315;48.738;9.126;2022-09-21T18:36:41;6.40;;;2.80;;
665;SDS011;315;48.738;9.126;2022-09-21T18:42:16;4.67;;;2.10;;
665;SDS011;315;48.738;9.126;2022-09-21T18:44:47;2.93;;;1.97;;
665;SDS011;315;48.738;9.126;2022-09-21T18:47:19;3.47;;;2.80;;
665;SDS011;315;48.738;9.126;2022-09-21T18:55:42;5.07;;;4.47;;
665;SDS011;315;48.738;9.126;2022-09-21T18:58:08;7.60;;;4.67;;
665;SDS011;315;48.738;9.126;2022-09-21T19:00:35;7.43;;;4.17;;
665;SDS011;315;48.738;9.126;2022-09-21T19:03:02;3.83;;;3.43;;
665;SDS011;315;48.738;9.126;2022-09-21T19:05:32;5.87;;;3.60;;
665;SDS011;315;48.738;9.126;2022-09-21T19:13:30;3.40;;;3.10;;
665;SDS011;315;48.738;9.126;2022-09-21T19:18:42;8.53;;;5.00;;
665;SDS011;315;48.738;9.126;2022-09-21T19:23:57;15.43;;;10.33;;
665;SDS011;315;48.738;9.126;2022-09-21T19:32:15;13.93;;;9.93;;
665;SDS011;315;48.738;9.126;2022-09-21T19:34:42;11.97;;;7.77;;
665;SDS011;315;48.738;9.126;2022-09-21T19:37:08;14.40;;;11.50;;
665;SDS011;315;48.738;9.126;2022-09-21T19:39:35;18.10;;;9.73;;
665;SDS011;315;48.738;9.126;2022-09-21T19:47:35;10.30;;;8.73;;